Tiempo atmosférico en la estación meteorológica de Gaucín, Málaga (545 m.)



Fecha
DESCASC
Temp. máxima en grados centígrados (hora)
DESCASC
Temp. mínima en grados centígrados (hora)
DESCASC
Temp. media en grados centígrados
DESCASC
Racha de viento máxima en m/sg (hora)
DESCASC
Velocidad máxima media en intervalos de 10 minutos(hora)
DESCASC
Precipitaciones diarias en mm
DESCASC
Precipitaciones de 00:00 a 06:00 en mm
DESCASC
Precipitaciones de 06:00 a 12:00 en mm
DESCASC
Precipitaciones de 12:00 a 18:00 en mm
DESCASC
Precipitaciones de 18:00 a 24:00 en mm
DESCASC
17-02-2019 14.8 (14:50) 7.6 (05:30) 11.2 5.83 (13:40) 3.33 (13:40) 0 0 0 0 0
16-02-2019 -- (--) -- (--) -- -- (--) -- (--) 0 0 0 0 0
15-02-2019 13.3 (16:30) 7.4 (06:50) 10.4 8.33 (23:40) 3.06 (23:20) 0 0 0 0 0
14-02-2019 13.8 (15:40) 7.2 (00:00) 10.5 6.67 (07:10) 2.22 (13:20) 0 0 0 0 0
13-02-2019 12.9 (15:50) 7.1 (00:00) 10 7.22 (04:50) 2.22 (15:30) 0 0 0 0 0
12-02-2019 12.1 (13:10) 8.7 (00:00) 10.4 7.22 (17:20) 2.5 (01:00) 0 0 0 0 0
11-02-2019 18.6 (14:20) 8.8 (00:00) 13.7 11.11 (04:00) 4.44 (03:50) 0 0 0 0 0
10-02-2019 14.4 (16:20) 2.8 (00:00) 8.6 9.72 (07:40) 6.67 (07:40) 0 0 0 0 0
09-02-2019 17.7 (15:30) 4 (00:00) 10.9 6.39 (16:40) 4.44 (10:00) 0 0 0 0 0
08-02-2019 16.8 (15:10) 6.8 (00:00) 11.8 6.11 (15:00) 3.89 (03:30) 0 0 0 0 0
07-02-2019 18.5 (15:10) 6.6 (00:00) 12.5 7.22 (17:40) 4.17 (04:30) 0 0 0 0 0
06-02-2019 16.7 (16:30) 6.7 (00:00) 11.7 4.72 (14:40) 3.61 (05:10) 0 0 0 0 0
05-02-2019 15.8 (16:30) 4.6 (00:00) 10.2 5.28 (14:20) 3.61 (07:20) 0 0 0 0 0
04-02-2019 13.3 (15:00) 2.8 (00:00) 8.1 9.44 (01:00) 5.28 (01:20) 0 0 0 0 0
03-02-2019 11.3 (15:30) 2.5 (00:00) 6.9 10 (22:20) 4.44 (22:20) 0 0 0 0 0
02-02-2019 8.6 (15:20) 4.8 (00:00) 6.7 12.78 (11:10) 5.28 (13:00) 0.4 0.4 0 0 0
01-02-2019 11.2 (08:20) 5.2 (00:00) 8.2 22.22 (05:10) 10.83 (05:40) 43.2 13.8 27.4 0 2
31-01-2019 11.2 (16:00) 9.4 (00:00) 10.3 17.22 (21:00) 8.33 (18:40) 26.4 4.6 8.6 2.2 11
30-01-2019 12.1 (15:10) 7.6 (00:00) 9.9 11.11 (10:10) 3.61 (07:50) 5.2 1.6 2.8 0 0.8
29-01-2019 10 (20:30) 7 (00:00) 8.5 12.78 (12:10) 7.5 (12:20) 0 0 0 0 0
28-01-2019 11.8 (13:50) 5.3 (00:00) 8.6 13.61 (15:30) 6.94 (14:50) 0 0 0 0 0
27-01-2019 12.5 (14:30) 5.6 (00:00) 9 11.11 (16:10) 4.72 (05:10) 0 0 0 0 0
26-01-2019 17.3 (15:00) 8.2 (00:00) 12.7 6.67 (01:10) 4.17 (01:00) 0 0 0 0 0
25-01-2019 19 (15:50) 7.5 (00:00) 13.3 10 (20:40) 5.28 (05:50) 0 0 0 0 0
24-01-2019 14.6 (15:40) 8.3 (00:00) 11.5 11.39 (06:40) 5.28 (06:40) 1.2 1 0.2 0 0
23-01-2019 9.5 (21:30) 5.9 (00:00) 7.7 11.11 (03:20) 4.17 (15:40) 1 1 0 0 0
22-01-2019 10.1 (14:00) 2.2 (00:00) 6.2 11.67 (22:00) 4.17 (13:20) 1 0 0 0 1
21-01-2019 13.2 (15:10) 2 (00:00) 7.6 7.22 (16:30) 3.33 (06:30) 0 0 0 0 0
20-01-2019 10.1 (02:00) 6.5 (00:00) 8.3 10.83 (03:30) 4.72 (00:10) 6.4 4.4 2 0 0
19-01-2019 10.2 (21:10) 6.1 (00:00) 8.1 14.17 (23:59) 4.72 (22:20) 15.2 2.2 5 0.2 7.8

Gráficas

Temp. máximas Temp. mínimas Temp. medias Precipitaciones Rachas de viento máximas Velocidades máximas media en intervalos de 10 minutos

Datos horarios

Fecha y hora oficial Temperatura (ºC) Velocidad del viento (km/h) Dirección del viento Racha (km/h) Dirección de racha Precipitación (mm) Presión (hPa) Tendencia (hPa) Humedad (%)
2019-02-17 23:00:00 7.8 3 Noroeste 6 Este 0 -- -- 88
2019-02-17 22:00:00 8 0 Calma 3 Sur 0 -- -- 92
2019-02-17 21:00:00 8.2 2 Sudoeste 5 Sudeste 0 -- -- 91
2019-02-17 20:00:00 8.8 0 Calma 8 Sudeste 0 -- -- 88
2019-02-17 19:00:00 9.8 0 Calma 13 Sudoeste 0 -- -- 88
2019-02-17 18:00:00 11.3 8 Sudoeste 13 Sudoeste 0 -- -- 83
2019-02-17 17:00:00 12.5 4 Sudoeste 15 Sudoeste 0 -- -- 76
2019-02-17 16:00:00 13.2 8 Sudoeste 17 Sudoeste 0 -- -- 73
2019-02-17 15:00:00 14.1 9 Sudoeste 17 Sudoeste 0 -- -- 68
2019-02-17 14:00:00 14.2 10 Sudoeste 21 Sudoeste 0 -- -- 69
2019-02-17 13:00:00 13.5 4 Nordeste 13 Nordeste 0 -- -- 66
2019-02-17 12:00:00 12.5 4 Nordeste 12 Este 0 -- -- 69
2019-02-17 11:00:00 11.7 6 Nordeste 14 Nordeste 0 -- -- 69
2019-02-17 10:00:00 9.9 2 Oeste 10 Norte 0 -- -- 76
2019-02-17 09:00:00 8.1 3 Oeste 10 Nordeste 0 -- -- 80
2019-02-17 08:00:00 7.9 2 Noroeste 13 Sudeste 0 -- -- 81
2019-02-17 07:00:00 7.9 3 Oeste 14 Este 0 -- -- 82
2019-02-17 06:00:00 7.8 4 Sur 13 Este 0 -- -- 84
2019-02-17 05:00:00 7.8 3 Sudoeste 10 Sudeste 0 -- -- 83
2019-02-17 04:00:00 8.2 3 Sudoeste 14 Nordeste 0 -- -- 82
2019-02-17 03:00:00 8.6 2 Noroeste 12 Oeste 0 -- -- 79
2019-02-17 02:00:00 8.7 2 Oeste 10 Sudeste 0 -- -- 83
2019-02-17 01:00:00 8.7 4 Nordeste 17 Este 0 -- -- 80
2019-02-17 00:00:00 8.7 4 Sur 16 Noroeste 0 -- -- 81
2019-02-16 23:00:00 8.6 2 Sudoeste 13 Sudeste 0 -- -- 78
2019-02-16 22:00:00 -- -- -- -- -- -- -- -- --
2019-02-16 21:00:00 8.7 4 Sur 17 Este 0 -- -- 76
2019-02-16 20:00:00 9.2 4 Sur 24 Sudeste 0 -- -- 76
2019-02-16 19:00:00 9.9 5 Sur 24 Este 0 -- -- 74
2019-02-16 18:00:00 10.9 6 Sudoeste 23 Nordeste 0 -- -- 69
2019-02-16 17:00:00 12.1 8 Sudoeste 31 Sur 0 -- -- 67
2019-02-16 16:00:00 11.7 9 Sudeste 32 Nordeste 0 -- -- 71
2019-02-16 15:00:00 11 8 Sudoeste 20 Sudeste 0 -- -- 72
2019-02-16 14:00:00 11.3 7 Sur 26 Sudeste 0 -- -- 73
2019-02-16 13:00:00 11.3 6 Sur 21 Sudeste 0 -- -- 71
2019-02-16 12:00:00 12 7 Sur 25 Sur 0 -- -- 69
2019-02-16 11:00:00 11 9 Sur 28 Sudeste 0 -- -- 70
2019-02-16 10:00:00 10.2 8 Sur 29 Este 0 -- -- 71
2019-02-16 09:00:00 8.8 4 Nordeste 17 Este 0 -- -- 79
2019-02-16 08:00:00 8.4 4 Sudoeste 24 Sudeste 0 -- -- 79
2019-02-16 07:00:00 8.9 4 Sur 16 Este 0 -- -- 73
2019-02-16 06:00:00 8.7 3 Sur 11 Oeste 0 -- -- 76
2019-02-16 05:00:00 8.9 2 Sudoeste 18 Sur 0 -- -- 78
2019-02-16 04:00:00 8.9 4 Oeste 10 Sudeste 0 -- -- 78
2019-02-16 03:00:00 9.2 3 Sudoeste 13 Este 0 -- -- 77
2019-02-16 02:00:00 9.6 4 Oeste 29 Sudeste 0 -- -- 75
2019-02-16 01:00:00 9.6 10 Sur 29 Sudeste 0 -- -- 76
2019-02-16 00:00:00 9.4 10 Sur 30 Sudeste 0 -- -- 78
2019-02-15 23:00:00 9.2 7 Sur 27 Este 0 -- -- 79
2019-02-15 22:00:00 9.2 9 Sur 25 Sudeste 0 -- -- 77
2019-02-15 21:00:00 9.1 4 Sudeste 19 Este 0 -- -- 78
2019-02-15 20:00:00 9 5 Sur 19 Sudoeste 0 -- -- 81
2019-02-15 19:00:00 9.7 8 Oeste 18 Nordeste 0 -- -- 79
2019-02-15 18:00:00 11.4 7 Sudoeste 17 Noroeste 0 -- -- 75
2019-02-15 17:00:00 12.5 7 Oeste 19 Sudoeste 0 -- -- 69
2019-02-15 16:00:00 12.5 5 Sudoeste 27 Norte 0 -- -- 70
2019-02-15 15:00:00 12.6 7 Oeste 21 Sur 0 -- -- 69
2019-02-15 14:00:00 12.2 6 Oeste 19 Este 0 -- -- 72
2019-02-15 13:00:00 12.4 6 Oeste 22 Este 0 -- -- 70
2019-02-15 12:00:00 12.2 6 Oeste 15 Nordeste 0 -- -- 73
2019-02-15 11:00:00 11.7 5 Sudoeste 20 Sur 0 -- -- 74
2019-02-15 10:00:00 9.4 5 Sur 14 Sur 0 -- -- 81
2019-02-15 09:00:00 7.8 3 Sudoeste 15 Sudeste 0 -- -- 86
2019-02-15 08:00:00 7.7 4 Sudeste 11 Sudeste 0 -- -- 84
2019-02-15 07:00:00 7.4 4 Sudoeste 11 Sur 0 -- -- 86
2019-02-15 06:00:00 8 3 Noroeste 10 Sudeste 0 -- -- 84
2019-02-15 05:00:00 8.1 3 Noroeste 14 Este 0 -- -- 84
2019-02-15 04:00:00 7.7 3 Sudoeste 12 Oeste 0 -- -- 83
2019-02-15 03:00:00 8 4 Oeste 17 Norte 0 -- -- 83
2019-02-15 02:00:00 7.8 4 Oeste 13 Nordeste 0 -- -- 82
2019-02-15 01:00:00 7.9 3 Sudoeste 13 Norte 0 -- -- 80
2019-02-15 00:00:00 8 5 Oeste 19 Norte 0 -- -- 79
2019-02-14 23:00:00 8.2 4 Noroeste 16 Este 0 -- -- 75
2019-02-14 22:00:00 8 6 Oeste 19 Nordeste 0 -- -- 73
2019-02-14 21:00:00 8 3 Sudoeste 12 Norte 0 -- -- 79
2019-02-14 20:00:00 8.5 5 Oeste 12 Noroeste 0 -- -- 77
2019-02-14 19:00:00 9.6 3 Norte 20 Sudoeste 0 -- -- 68
2019-02-14 18:00:00 11.6 4 Noroeste 17 Norte 0 -- -- 69
2019-02-14 17:00:00 11.9 5 Nordeste 20 Nordeste 0 -- -- 69
2019-02-14 16:00:00 13.5 5 Oeste 16 Sudoeste 0 -- -- 66
2019-02-14 15:00:00 12.4 5 Nordeste 14 Sur 0 -- -- 67
2019-02-14 14:00:00 11.8 4 Sudoeste 21 Sudoeste 0 -- -- 70
2019-02-14 13:00:00 11.6 7 Sudoeste 18 Sudoeste 0 -- -- 72
2019-02-14 12:00:00 10.7 4 Sudoeste 14 Sudoeste 0 -- -- 76
2019-02-14 11:00:00 10.1 5 Sudoeste 17 Nordeste 0 -- -- 77
2019-02-14 10:00:00 9.2 6 Oeste 16 Sudoeste 0 -- -- 79
2019-02-14 09:00:00 7.9 5 Sudoeste 20 Norte 0 -- -- 83
2019-02-14 08:00:00 7.4 3 Noroeste 24 Noroeste 0 -- -- 83
2019-02-14 07:00:00 7.2 4 Oeste 15 Nordeste 0 -- -- 85
2019-02-14 06:00:00 7.6 3 Norte 11 Norte 0 -- -- 84
2019-02-14 05:00:00 7.8 4 Nordeste 18 Este 0 -- -- 83
2019-02-14 04:00:00 7.6 5 Sudoeste 15 Este 0 -- -- 84
2019-02-14 03:00:00 7.8 5 Oeste 11 Nordeste 0 -- -- 83
2019-02-14 02:00:00 8.2 5 Sudoeste 21 Norte 0 -- -- 81
2019-02-14 01:00:00 8.2 5 Este 18 Sudeste 0 -- -- 80
2019-02-14 00:00:00 8.4 5 Nordeste 23 Nordeste 0 -- -- 78
2019-02-13 23:00:00 8.3 4 Oeste 18 Sur 0 -- -- 72
2019-02-13 22:00:00 8.7 5 Nordeste 19 Nordeste 0 -- -- 68
2019-02-13 21:00:00 8.7 4 Noroeste 16 Este 0 -- -- 67
2019-02-13 20:00:00 8.5 3 Sudoeste 14 Sudoeste 0 -- -- 80
2019-02-13 19:00:00 9.5 5 Sudoeste 12 Norte 0 -- -- 79
2019-02-13 18:00:00 12 4 Sudoeste 17 Sudeste 0 -- -- 73
2019-02-13 17:00:00 11.1 5 Oeste 17 Noroeste 0 -- -- 74
2019-02-13 16:00:00 12.7 6 Oeste 18 Sudoeste 0 -- -- 71
2019-02-13 15:00:00 12.1 5 Nordeste 15 Este 0 -- -- 70
2019-02-13 14:00:00 11.5 6 Norte 21 Norte 0 -- -- 73
2019-02-13 13:00:00 12 6 Este 17 Este 0 -- -- 72
2019-02-13 12:00:00 12.2 8 Noroeste 19 Sur 0 -- -- 69
2019-02-13 11:00:00 11.2 4 Norte 14 Nordeste 0 -- -- 72
2019-02-13 10:00:00 8.8 4 Sudoeste 19 Sudoeste 0 -- -- 79
2019-02-13 09:00:00 7.3 5 Oeste 12 Sudoeste 0 -- -- 81
2019-02-13 08:00:00 7.2 4 Sudoeste 12 Este 0 -- -- 81
2019-02-13 07:00:00 7.4 3 Oeste 13 Noroeste 0 -- -- 83
2019-02-13 06:00:00 7.7 3 Oeste 17 Norte 0 -- -- 81
2019-02-13 05:00:00 7.8 3 Sudeste 26 Este 0 -- -- 81
2019-02-13 04:00:00 7.4 4 Oeste 15 Oeste 0 -- -- 81
2019-02-13 03:00:00 7.9 4 Sudoeste 14 Oeste 0 -- -- 78
2019-02-13 02:00:00 8.3 4 Sudoeste 14 Oeste 0 -- -- 74
2019-02-13 01:00:00 8.5 3 Oeste 16 Sur 0 -- -- 71
2019-02-13 00:00:00 8.8 7 Oeste 18 Sur 0 -- -- 66
2019-02-12 23:00:00 8.8 6 Oeste 17 Norte 0 -- -- 64
2019-02-12 22:00:00 9.1 5 Oeste 26 Nordeste 0 -- -- 61
2019-02-12 21:00:00 8.8 5 Sudoeste 18 Sur 0 -- -- 64
2019-02-12 20:00:00 9 5 Oeste 18 Sudoeste 0 -- -- 69
2019-02-12 19:00:00 9.6 8 Oeste 20 Nordeste 0 -- -- 69
2019-02-12 18:00:00 10.8 8 Oeste 26 Este 0 -- -- 74
2019-02-12 17:00:00 10 5 Norte 22 Este 0 -- -- 82
2019-02-12 16:00:00 10.2 9 Oeste 22 Sudeste 0 -- -- 87
2019-02-12 15:00:00 10 4 Sudoeste 20 Sur 0 -- -- 90
2019-02-12 14:00:00 10.9 6 Sur 17 Este 0 -- -- 86
2019-02-12 13:00:00 12 5 Sur 19 Sudeste 0 -- -- 81
2019-02-12 12:00:00 11.8 6 Sudoeste 24 Sudeste 0 -- -- 83
2019-02-12 11:00:00 10.7 6 Sur 19 Este 0 -- -- 87
2019-02-12 10:00:00 10.9 5 Sur 15 Sudeste 0 -- -- 84
2019-02-12 09:00:00 10.2 8 Oeste 15 Oeste 0 -- -- 87
2019-02-12 08:00:00 9.7 6 Oeste 20 Noroeste 0 -- -- 85
2019-02-12 07:00:00 9.1 8 Sudoeste 22 Sudoeste 0 -- -- 85
2019-02-12 06:00:00 9.5 5 Noroeste 25 Norte 0 -- -- 82
2019-02-12 05:00:00 10 4 Oeste 17 Norte 0 -- -- 73
2019-02-12 04:00:00 10.4 4 Noroeste 14 Norte 0 -- -- 70
2019-02-12 03:00:00 10.4 2 Norte 15 Noroeste 0 -- -- 72
2019-02-12 02:00:00 10.3 3 Noroeste 13 Nordeste 0 -- -- 80
2019-02-12 01:00:00 9.9 9 Nordeste 10 Nordeste 0 -- -- 84
2019-02-12 00:00:00 10.5 2 Nordeste 7 Nordeste 0 -- -- 83
2019-02-11 23:00:00 11 2 Nordeste 10 Nordeste 0 -- -- 81
2019-02-11 22:00:00 11 4 Norte 12 Norte 0 -- -- 80
2019-02-11 21:00:00 11.3 7 Norte 14 Norte 0 -- -- 78
2019-02-11 20:00:00 12.1 8 Norte 17 Norte 0 -- -- 73
2019-02-11 19:00:00 13.8 12 Norte 22 Norte 0 -- -- 68
2019-02-11 18:00:00 15.8 12 Norte 21 Norte 0 -- -- 63
2019-02-11 17:00:00 17.3 9 Norte 18 Norte 0 -- -- 60
2019-02-11 16:00:00 18.4 7 Norte 17 Norte 0 -- -- 58
2019-02-11 15:00:00 18.5 4 Norte 19 Oeste 0 -- -- 56
2019-02-11 14:00:00 18.2 4 Norte 12 Noroeste 0 -- -- 55
2019-02-11 13:00:00 17.6 5 Noroeste 12 Noroeste 0 -- -- 54
2019-02-11 12:00:00 15.8 5 Norte 18 Norte 0 -- -- 60
2019-02-11 11:00:00 13.6 6 Nordeste 22 Norte 0 -- -- 72
2019-02-11 10:00:00 10.8 5 Norte 14 Noroeste 0 -- -- 88
2019-02-11 09:00:00 8.8 3 Noroeste 10 Norte 0 -- -- 91
2019-02-11 08:00:00 9.5 4 Nordeste 14 Este 0 -- -- 88
2019-02-11 07:00:00 9.7 4 Este 15 Nordeste 0 -- -- 86
2019-02-11 06:00:00 9.6 5 Nordeste 21 Nordeste 0 -- -- 86
2019-02-11 05:00:00 9.8 6 Nordeste 32 Norte 0 -- -- 84
2019-02-11 04:00:00 10.2 15 Norte 40 Norte 0 -- -- 79
2019-02-11 03:00:00 10.5 13 Nordeste 30 Noroeste 0 -- -- 76
2019-02-11 02:00:00 10.5 12 Norte 31 Norte 0 -- -- 75
2019-02-11 01:00:00 9.5 7 Oeste 22 Nordeste 0 -- -- 79
2019-02-11 00:00:00 8.9 8 Nordeste 29 Norte 0 -- -- 80
2019-02-10 23:00:00 8.4 5 Nordeste 20 Norte 0 -- -- 82
2019-02-10 22:00:00 9 6 Nordeste 16 Norte 0 -- -- 79
2019-02-10 21:00:00 9.8 4 Nordeste 15 Norte 0 -- -- 73
2019-02-10 20:00:00 10.3 5 Norte 16 Norte 0 -- -- 72
2019-02-10 19:00:00 11.4 4 Nordeste 18 Nordeste 0 -- -- 68
2019-02-10 18:00:00 13.7 8 Nordeste 21 Noroeste 0 -- -- 62
2019-02-10 17:00:00 13.5 9 Norte 30 Noroeste 0 -- -- 65
2019-02-10 16:00:00 14.2 7 Norte 21 Noroeste 0 -- -- 66
2019-02-10 15:00:00 14.2 9 Norte 30 Norte 0 -- -- 64
2019-02-10 14:00:00 14.3 10 Noroeste 22 Oeste 0 -- -- 62
2019-02-10 13:00:00 13.4 6 Nordeste 20 Norte 0 -- -- 64
2019-02-10 12:00:00 11.1 7 Norte 27 Norte 0 -- -- 70
2019-02-10 11:00:00 7.5 9 Nordeste 20 Nordeste 0 -- -- 81
2019-02-10 10:00:00 6.2 12 Nordeste 34 Norte 0 -- -- 86
2019-02-10 09:00:00 4.3 17 Norte 31 Norte 0 -- -- 94
2019-02-10 08:00:00 3.5 14 Norte 35 Norte 0 -- -- 89
2019-02-10 07:00:00 4 19 Norte 34 Norte 0 -- -- 92
2019-02-10 06:00:00 5.1 14 Norte 30 Norte 0 -- -- 83
2019-02-10 05:00:00 7.2 12 Norte 21 Norte 0 -- -- 84
2019-02-10 04:00:00 7.4 10 Norte 13 Norte 0 -- -- 61
2019-02-10 03:00:00 7.1 11 Nordeste 14 Norte 0 -- -- 64
2019-02-10 02:00:00 8.4 6 Nordeste 11 Nordeste 0 -- -- 56
2019-02-10 01:00:00 8.5 4 Nordeste 11 Norte 0 -- -- 65
2019-02-10 00:00:00 9 5 Nordeste 12 Nordeste 0 -- -- 65
2019-02-09 23:00:00 9.3 3 Nordeste 12 Nordeste 0 -- -- 69
2019-02-09 22:00:00 9.9 9 Nordeste 13 Nordeste 0 -- -- 66
2019-02-09 21:00:00 10.7 8 Norte 11 Norte 0 -- -- 64
2019-02-09 20:00:00 12.1 5 Nordeste 7 Norte 0 -- -- 60
2019-02-09 19:00:00 13.2 2 Sur 9 Sudoeste 0 -- -- 59
2019-02-09 18:00:00 16.1 4 Sudoeste 15 Sudoeste 0 -- -- 52
2019-02-09 17:00:00 16.8 9 Sudoeste 23 Sudoeste 0 -- -- 49
2019-02-09 16:00:00 17.3 11 Sudoeste 20 Sudoeste 0 -- -- 47
2019-02-09 15:00:00 17.3 8 Sur 19 Sudoeste 0 -- -- 47
2019-02-09 14:00:00 16.7 9 Sudoeste 16 Sudoeste 0 -- -- 46
2019-02-09 13:00:00 16.4 3 Nordeste 10 Nordeste 0 -- -- 35
2019-02-09 12:00:00 14 5 Nordeste 13 Norte 0 -- -- 38
2019-02-09 11:00:00 9.9 9 Norte 17 Norte 0 -- -- 47
2019-02-09 10:00:00 5 16 Norte 22 Norte 0 -- -- 72
2019-02-09 09:00:00 4.1 10 Norte 18 Norte 0 -- -- 76
2019-02-09 08:00:00 4.7 14 Norte 17 Nordeste 0 -- -- 73
2019-02-09 07:00:00 4.8 10 Norte 15 Nordeste 0 -- -- 77
2019-02-09 06:00:00 5.4 14 Nordeste 18 Norte 0 -- -- 79
2019-02-09 05:00:00 5.8 7 Norte 17 Nordeste 0 -- -- 80
2019-02-09 04:00:00 6.1 14 Nordeste 18 Norte 0 -- -- 82
2019-02-09 03:00:00 5.6 15 Nordeste 17 Nordeste 0 -- -- 88
2019-02-09 02:00:00 6.3 12 Norte 15 Norte 0 -- -- 88
2019-02-09 01:00:00 7.4 10 Norte 15 Norte 0 -- -- 85
2019-02-09 00:00:00 8.5 5 Nordeste 14 Norte 0 -- -- 84
2019-02-08 23:00:00 9.3 6 Norte 14 Norte 0 -- -- 84
2019-02-08 22:00:00 9.7 9 Norte 13 Norte 0 -- -- 82
2019-02-08 21:00:00 10.3 7 Nordeste 13 Norte 0 -- -- 85
2019-02-08 20:00:00 11.3 5 Nordeste 9 Nordeste 0 -- -- 84
2019-02-08 19:00:00 12.8 3 Sudoeste 10 Sudoeste 0 -- -- 77
2019-02-08 18:00:00 15.1 5 Sudoeste 17 Sudoeste 0 -- -- 71
2019-02-08 17:00:00 16 9 Sudoeste 18 Sudoeste 0 -- -- 69
2019-02-08 16:00:00 16.2 9 Sudoeste 20 Sudoeste 0 -- -- 53
2019-02-08 15:00:00 16.5 10 Sudoeste 22 Sudoeste 0 -- -- 51
2019-02-08 14:00:00 16.1 8 Sudoeste 17 Sur 0 -- -- 54
2019-02-08 13:00:00 15 9 Sudoeste 17 Sudoeste 0 -- -- 60
2019-02-08 12:00:00 14.8 4 Sudoeste 9 Sudoeste 0 -- -- 57
2019-02-08 11:00:00 12 6 Norte 10 Norte 0 -- -- 61
2019-02-08 10:00:00 8.5 9 Nordeste 12 Nordeste 0 -- -- 66
2019-02-08 09:00:00 7.1 8 Norte 11 Nordeste 0 -- -- 69
2019-02-08 08:00:00 7.7 6 Norte 13 Norte 0 -- -- 66
2019-02-08 07:00:00 7.3 9 Norte 12 Norte 0 -- -- 67
2019-02-08 06:00:00 7.8 6 Norte 12 Nordeste 0 -- -- 65
2019-02-08 05:00:00 8.5 2 Norte 15 Nordeste 0 -- -- 62
2019-02-08 04:00:00 7.9 12 Nordeste 16 Nordeste 0 -- -- 66
2019-02-08 03:00:00 8.9 12 Norte 16 Norte 0 -- -- 61
2019-02-08 02:00:00 9.2 12 Norte 17 Norte 0 -- -- 62
2019-02-08 01:00:00 8.8 11 Norte 19 Norte 0 -- -- 66
2019-02-08 00:00:00 8.5 12 Norte 19 Norte 0 -- -- 72
2019-02-07 23:00:00 9.4 11 Norte 18 Norte 0 -- -- 69
2019-02-07 22:00:00 10.4 9 Norte 23 Norte 0 -- -- 66
2019-02-07 21:00:00 10.5 9 Nordeste 19 Norte 0 -- -- 69
2019-02-07 20:00:00 11.6 10 Norte 21 Nordeste 0 -- -- 68
2019-02-07 19:00:00 13.5 12 Norte 26 Norte 0 -- -- 63
2019-02-07 18:00:00 15.7 10 Norte 26 Norte 0 -- -- 58
2019-02-07 17:00:00 17.1 9 Norte 24 Norte 0 -- -- 53
2019-02-07 16:00:00 17.7 12 Norte 23 Norte 0 -- -- 49
2019-02-07 15:00:00 18.4 10 Norte 22 Norte 0 -- -- 45
2019-02-07 14:00:00 17.7 6 Norte 22 Norte 0 -- -- 45
2019-02-07 13:00:00 17 7 Norte 17 Norte 0 -- -- 50
2019-02-07 12:00:00 14.5 6 Norte 16 Noroeste 0 -- -- 60
2019-02-07 11:00:00 11.6 11 Nordeste 17 Norte 0 -- -- 67
2019-02-07 10:00:00 8.3 9 Nordeste 14 Nordeste 0 -- -- 76
2019-02-07 09:00:00 8 10 Nordeste 13 Norte 0 -- -- 76
2019-02-07 08:00:00 7.6 9 Nordeste 15 Nordeste 0 -- -- 77
2019-02-07 07:00:00 7.4 9 Nordeste 15 Nordeste 0 -- -- 78
2019-02-07 06:00:00 6.6 8 Nordeste 17 Norte 0 -- -- 82
2019-02-07 05:00:00 7 11 Norte 22 Norte 0 -- -- 80
2019-02-07 04:00:00 7.1 11 Nordeste 19 Norte 0 -- -- 81
2019-02-07 03:00:00 7 13 Nordeste 20 Norte 0 -- -- 84
2019-02-07 02:00:00 7.9 13 Norte 19 Norte 0 -- -- 81
2019-02-07 01:00:00 8.3 12 Norte 17 Norte 0 -- -- 80
2019-02-07 00:00:00 9 3 Norte 15 Norte 0 -- -- 77
2019-02-06 23:00:00 9.5 10 Norte 15 Norte 0 -- -- 74
2019-02-06 22:00:00 9.9 10 Nordeste 13 Nordeste 0 -- -- 72
2019-02-06 21:00:00 11.3 7 Nordeste 9 Norte 0 -- -- 66
2019-02-06 20:00:00 12 5 Nordeste 10 Norte 0 -- -- 64
2019-02-06 19:00:00 13.3 0 Calma 6 Sudoeste 0 -- -- 60
2019-02-06 18:00:00 15.9 5 Sudoeste 10 Sudoeste 0 -- -- 55
2019-02-06 17:00:00 16.5 6 Sudoeste 17 Sudoeste 0 -- -- 53
2019-02-06 16:00:00 16.5 10 Sudoeste 17 Sudoeste 0 -- -- 51
2019-02-06 15:00:00 16 9 Sudoeste 17 Sudoeste 0 -- -- 61
2019-02-06 14:00:00 15.8 9 Sudoeste 15 Sudoeste 0 -- -- 64
2019-02-06 13:00:00 14.6 6 Sudoeste 14 Sudoeste 0 -- -- 70
2019-02-06 12:00:00 13.6 5 Sudoeste 9 Sur 0 -- -- 66
2019-02-06 11:00:00 12.6 2 Sudoeste 12 Nordeste 0 -- -- 64
2019-02-06 10:00:00 8.3 9 Nordeste 15 Nordeste 0 -- -- 65
2019-02-06 09:00:00 6.8 11 Nordeste 15 Nordeste 0 -- -- 68
2019-02-06 08:00:00 8.5 0 Calma 5 Sur 0 -- -- 62
2019-02-06 07:00:00 8.9 3 Este 14 Norte 0 -- -- 57
2019-02-06 06:00:00 7.8 6 Nordeste 14 Nordeste 0 -- -- 64
2019-02-06 05:00:00 8.3 10 Nordeste 12 Nordeste 0 -- -- 62
2019-02-06 04:00:00 9 0 Calma 5 Norte 0 -- -- 60
2019-02-06 03:00:00 10 0 Calma 7 Norte 0 -- -- 56
2019-02-06 02:00:00 11.5 4 Norte 8 Norte 0 -- -- 49
2019-02-06 01:00:00 11.3 5 Norte 12 Nordeste 0 -- -- 50
2019-02-06 00:00:00 10.7 8 Norte 16 Norte 0 -- -- 57
2019-02-05 23:00:00 9.2 12 Nordeste 17 Norte 0 -- -- 72
2019-02-05 22:00:00 9.7 11 Norte 16 Norte 0 -- -- 74
2019-02-05 21:00:00 10.3 9 Nordeste 13 Norte 0 -- -- 73
2019-02-05 20:00:00 11.2 8 Nordeste 12 Norte 0 -- -- 74
2019-02-05 19:00:00 12.6 0 Calma 4 Sudoeste 0 -- -- 71
2019-02-05 18:00:00 15 4 Sudoeste 12 Sudoeste 0 -- -- 66
2019-02-05 17:00:00 15.5 7 Sudoeste 14 Sudoeste 0 -- -- 63
2019-02-05 16:00:00 15.4 8 Sudoeste 17 Sudoeste 0 -- -- 65
2019-02-05 15:00:00 15.1 8 Sudoeste 19 Sudoeste 0 -- -- 62
2019-02-05 14:00:00 14.5 6 Sudoeste 13 Sudoeste 0 -- -- 63
2019-02-05 13:00:00 14.1 5 Sudoeste 12 Sudoeste 0 -- -- 62
2019-02-05 12:00:00 13 3 Sudeste 9 Este 0 -- -- 57
2019-02-05 11:00:00 11.4 0 Calma 6 Nordeste 0 -- -- 55
2019-02-05 10:00:00 6.5 3 Nordeste 11 Nordeste 0 -- -- 56
2019-02-05 09:00:00 5.3 8 Nordeste 14 Nordeste 0 -- -- 55
2019-02-05 08:00:00 5.4 5 Nordeste 15 Nordeste 0 -- -- 53
2019-02-05 07:00:00 4.6 12 Nordeste 15 Nordeste 0 -- -- 58
2019-02-05 06:00:00 5.3 8 Nordeste 12 Nordeste 0 -- -- 54
2019-02-05 05:00:00 7.1 2 Oeste 7 Oeste 0 -- -- 61
2019-02-05 04:00:00 7.1 0 Calma 3 Nordeste 0 -- -- 54
2019-02-05 03:00:00 7.8 5 Norte 13 Norte 0 -- -- 45
2019-02-05 02:00:00 7.9 0 Calma 9 Nordeste 0 -- -- 46
2019-02-05 01:00:00 7.4 4 Nordeste 17 Nordeste 0 -- -- 50
2019-02-05 00:00:00 7.6 4 Nordeste 14 Norte 0 -- -- 55
2019-02-04 23:00:00 8 11 Nordeste 14 Nordeste 0 -- -- 58
2019-02-04 22:00:00 8.7 10 Nordeste 15 Norte 0 -- -- 62
2019-02-04 21:00:00 8.1 7 Nordeste 14 Nordeste 0 -- -- 69
2019-02-04 20:00:00 7.7 6 Nordeste 13 Norte 0 -- -- 71
2019-02-04 19:00:00 9.2 6 Norte 11 Norte 0 -- -- 65
2019-02-04 18:00:00 12.1 4 Sudoeste 15 Sudoeste 0 -- -- 57
2019-02-04 17:00:00 12.6 9 Sudoeste 17 Sudoeste 0 -- -- 55
2019-02-04 16:00:00 13.1 11 Sudoeste 19 Sudoeste 0 -- -- 57
2019-02-04 15:00:00 13.3 9 Sudoeste 18 Sudoeste 0 -- -- 54
2019-02-04 14:00:00 13 8 Sudoeste 15 Sudoeste 0 -- -- 48
2019-02-04 13:00:00 11.7 7 Sudoeste 15 Sudoeste 0 -- -- 48
2019-02-04 12:00:00 10.4 7 Sudoeste 15 Sudoeste 0 -- -- 49
2019-02-04 11:00:00 9.1 4 Sudoeste 12 Norte 0 -- -- 48
2019-02-04 10:00:00 4.8 9 Nordeste 14 Norte 0 -- -- 51
2019-02-04 09:00:00 3.9 3 Norte 16 Nordeste 0 -- -- 48
2019-02-04 08:00:00 2.9 12 Nordeste 15 Norte 0 -- -- 58
2019-02-04 07:00:00 2.8 11 Norte 17 Norte 0 -- -- 61
2019-02-04 06:00:00 4.1 8 Nordeste 13 Nordeste 0 -- -- 55
2019-02-04 05:00:00 4.7 0 Calma 13 Norte 0 -- -- 55
2019-02-04 04:00:00 4.2 9 Nordeste 13 Norte 0 -- -- 61
2019-02-04 03:00:00 4.5 2 Norte 18 Noroeste 0 -- -- 62
2019-02-04 02:00:00 5.3 6 Norte 34 Norte 0 -- -- 58
2019-02-04 01:00:00 5.6 18 Norte 34 Norte 0 -- -- 60
2019-02-04 00:00:00 5.1 8 Nordeste 24 Norte 0 -- -- 61
2019-02-03 23:00:00 5.3 8 Nordeste 36 Noroeste 0 -- -- 57
2019-02-03 22:00:00 5.2 6 Norte 18 Nordeste 0 -- -- 59
2019-02-03 21:00:00 5.5 6 Nordeste 17 Nordeste 0 -- -- 56
2019-02-03 20:00:00 5.7 4 Nordeste 19 Norte 0 -- -- 55
2019-02-03 19:00:00 6.8 5 Noroeste 22 Norte 0 -- -- 49
2019-02-03 18:00:00 9.6 5 Sur 27 Norte 0 -- -- 44
2019-02-03 17:00:00 10.4 8 Nordeste 21 Norte 0 -- -- 41
2019-02-03 16:00:00 10.9 9 Nordeste 22 Norte 0 -- -- 42
2019-02-03 15:00:00 10.9 7 Noroeste 15 Norte 0 -- -- 41
2019-02-03 14:00:00 10.5 7 Norte 23 Norte 0 -- -- 43
2019-02-03 13:00:00 9.9 5 Norte 18 Norte 0 -- -- 41
2019-02-03 12:00:00 8.3 4 Norte 17 Norte 0 -- -- 54
2019-02-03 11:00:00 6.3 5 Nordeste 15 Este 0 -- -- 58
2019-02-03 10:00:00 3.3 5 Nordeste 13 Norte 0 -- -- 68
2019-02-03 09:00:00 2.7 3 Este 9 Nordeste 0 -- -- 68
2019-02-03 08:00:00 2.6 3 Norte 7 Norte 0 -- -- 68
2019-02-03 07:00:00 2.8 2 Oeste 7 Norte 0 -- -- 66
2019-02-03 06:00:00 2.9 4 Norte 9 Norte 0 -- -- 66
2019-02-03 05:00:00 2.8 3 Norte 10 Nordeste 0 -- -- 67
2019-02-03 04:00:00 3.1 4 Nordeste 10 Norte 0 -- -- 65
2019-02-03 03:00:00 3.2 4 Este 10 Nordeste 0 -- -- 66
2019-02-03 02:00:00 4 3 Nordeste 8 Este 0 -- -- 63
2019-02-03 01:00:00 4 4 Este 12 Nordeste 0 -- -- 63
2019-02-03 00:00:00 5 0 Calma 16 Nordeste 0 -- -- 56
2019-02-02 23:00:00 5.1 4 Oeste 15 Noroeste 0 -- -- 56
2019-02-02 22:00:00 5.8 5 Nordeste 26 Nordeste 0 -- -- 57
2019-02-02 21:00:00 6.1 10 Nordeste 26 Norte 0 -- -- 61
2019-02-02 20:00:00 6.3 9 Noroeste 29 Oeste 0 -- -- 64
2019-02-02 19:00:00 6.9 10 Noroeste 36 Noroeste 0 -- -- 60
2019-02-02 18:00:00 7.7 11 Noroeste 30 Norte 0 -- -- 58
2019-02-02 17:00:00 8.1 10 Noroeste 37 Noroeste 0 -- -- 57
2019-02-02 16:00:00 7.9 12 Oeste 41 Nordeste 0 -- -- 57
2019-02-02 15:00:00 8.3 13 Noroeste 43 Nordeste 0 -- -- 60
2019-02-02 14:00:00 7.9 12 Noroeste 40 Norte 0 -- -- 64
2019-02-02 13:00:00 7.1 19 Noroeste 41 Norte 0 -- -- 65
2019-02-02 12:00:00 6.8 14 Noroeste 46 Noroeste 0 -- -- 69
2019-02-02 11:00:00 5.8 12 Noroeste 41 Norte 0 -- -- 78
2019-02-02 10:00:00 5.2 9 Oeste 41 Norte 0 -- -- 82
2019-02-02 09:00:00 5.2 9 Noroeste 42 Noroeste 0 -- -- 83
2019-02-02 08:00:00 5.7 11 Oeste 40 Noroeste 0 -- -- 83
2019-02-02 07:00:00 5.9 14 Oeste 41 Oeste 0 -- -- 81
2019-02-02 06:00:00 6.2 10 Noroeste 38 Norte 0 -- -- 83
2019-02-02 05:00:00 6.3 11 Noroeste 42 Noroeste 0.2 -- -- 83
2019-02-02 04:00:00 6.3 12 Noroeste 36 Noroeste 0.2 -- -- 84
2019-02-02 03:00:00 6.1 12 Noroeste 43 Nordeste 0 -- -- 85
2019-02-02 02:00:00 5.8 13 Noroeste 40 Norte 0 -- -- 86
2019-02-02 01:00:00 5.4 10 Oeste 42 Noroeste 0 -- -- 89
2019-02-02 00:00:00 5.2 9 Noroeste 41 Noroeste 1.4 -- -- 88
2019-02-01 23:00:00 6.9 18 Oeste 44 Nordeste 0 -- -- 77
2019-02-01 22:00:00 7.4 11 Noroeste 45 Norte 0 -- -- 78
2019-02-01 21:00:00 7.5 12 Oeste 38 Sudoeste 0.6 -- -- 83
2019-02-01 20:00:00 8.6 16 Noroeste 42 Norte 0 -- -- 76
2019-02-01 19:00:00 8.9 12 Noroeste 40 Noroeste 0 -- -- 75
2019-02-01 18:00:00 9.4 11 Noroeste 48 Norte 0 -- -- 72
2019-02-01 17:00:00 9.9 17 Noroeste 42 Norte 0 -- -- 71
2019-02-01 16:00:00 10.2 14 Oeste 45 Norte 0 -- -- 67
2019-02-01 15:00:00 10.5 13 Oeste 44 Nordeste 0 -- -- 71
2019-02-01 14:00:00 9.9 16 Noroeste 48 Norte 0 -- -- 77
2019-02-01 13:00:00 8.9 19 Oeste 54 Noroeste 0 -- -- 81
2019-02-01 12:00:00 9 14 Oeste 49 Noroeste 0 -- -- 88
2019-02-01 11:00:00 7.9 12 Noroeste 58 Nordeste 0 -- -- 96
2019-02-01 10:00:00 7.5 13 Norte 46 Nordeste 3 -- -- 97
2019-02-01 09:00:00 10.6 12 Oeste 55 Sudoeste 9.4 -- -- 97
2019-02-01 08:00:00 11.1 29 Sudoeste 68 Sudoeste 4.8 -- -- 97
2019-02-01 07:00:00 10.8 33 Sudoeste 75 Sur 10.2 -- -- 98
2019-02-01 06:00:00 10.6 22 Sudoeste 80 Sudoeste 2.4 -- -- 97
2019-02-01 05:00:00 10.8 28 Sudoeste 76 Sudoeste 2.6 -- -- 97
2019-02-01 04:00:00 10.7 27 Sudoeste 61 Sudoeste 1.6 -- -- 98
2019-02-01 03:00:00 10.5 20 Sudoeste 51 Sudoeste 1.4 -- -- 98
2019-02-01 02:00:00 10.4 22 Sudoeste 54 Sudoeste 1 -- -- 97
2019-02-01 01:00:00 10.5 15 Sudoeste 42 Sur 4.8 -- -- 97
2019-02-01 00:00:00 10.1 17 Sudoeste 37 Sur 4.8 -- -- 97
2019-01-31 23:00:00 10 12 Sudoeste 29 Sur 3 -- -- 97
2019-01-31 22:00:00 9.8 13 Sudoeste 46 Sudoeste 2.4 -- -- 96
2019-01-31 21:00:00 9.6 25 Sudoeste 62 Sudoeste 0.4 -- -- 96
2019-01-31 20:00:00 9.4 24 Sudoeste 48 Sudoeste 0.2 -- -- 95
2019-01-31 19:00:00 9.5 24 Sudoeste 58 Sudoeste 0.2 -- -- 94
2019-01-31 18:00:00 10.3 22 Sudoeste 45 Sudoeste 0 -- -- 90
2019-01-31 17:00:00 10.6 12 Sudoeste 46 Sudoeste 0 -- -- 91
2019-01-31 16:00:00 11.2 8 Noroeste 43 Sudoeste 0 -- -- 88
2019-01-31 15:00:00 10.7 13 Sudoeste 32 Sudoeste 0.2 -- -- 93
2019-01-31 14:00:00 9.8 15 Sudoeste 40 Sudoeste 1 -- -- 96
2019-01-31 13:00:00 9.9 15 Sudoeste 39 Sudoeste 1 -- -- 96
2019-01-31 12:00:00 9.8 13 Sudoeste 32 Noroeste 0.8 -- -- 95
2019-01-31 11:00:00 10.1 11 Noroeste 34 Sudoeste 1.6 -- -- 95
2019-01-31 10:00:00 9.9 8 Sudoeste 36 Noroeste 0.6 -- -- 95
2019-01-31 09:00:00 10 9 Noroeste 26 Oeste 1.4 -- -- 95
2019-01-31 08:00:00 10 8 Noroeste 26 Sudoeste 3.6 -- -- 95
2019-01-31 07:00:00 9.9 9 Sudoeste 28 Sudoeste 0.6 -- -- 94
2019-01-31 06:00:00 10.1 7 Oeste 28 Noroeste 0.4 -- -- 93
2019-01-31 05:00:00 9.7 7 Oeste 24 Noroeste 0.6 -- -- 93
2019-01-31 04:00:00 9.5 4 Oeste 25 Noroeste 1.8 -- -- 94
2019-01-31 03:00:00 9.7 6 Noroeste 31 Sudoeste 0.8 -- -- 92
2019-01-31 02:00:00 9.8 9 Noroeste 32 Norte 1 -- -- 91
2019-01-31 01:00:00 9.7 12 Noroeste 33 Noroeste 0 -- -- 91
2019-01-31 00:00:00 9.9 13 Noroeste 40 Noroeste 0.2 -- -- 91
2019-01-30 23:00:00 9.8 7 Oeste 30 Norte 0 -- -- 92
2019-01-30 22:00:00 9.7 6 Noroeste 23 Norte 0.2 -- -- 93
2019-01-30 21:00:00 9.4 4 Noroeste 14 Norte 0.4 -- -- 94
2019-01-30 20:00:00 9.2 4 Oeste 15 Norte 0 -- -- 92
2019-01-30 19:00:00 9 6 Norte 25 Norte 0 -- -- 88
2019-01-30 18:00:00 9.5 3 Noroeste 27 Norte 0 -- -- 83
2019-01-30 17:00:00 10.1 9 Oeste 35 Noroeste 0 -- -- 76
2019-01-30 16:00:00 11.2 10 Noroeste 35 Noroeste 0 -- -- 65
2019-01-30 15:00:00 11.9 12 Noroeste 33 Norte 0 -- -- 61
2019-01-30 14:00:00 11 9 Noroeste 35 Norte 0 -- -- 71
2019-01-30 13:00:00 10.2 12 Noroeste 30 Noroeste 0 -- -- 76
2019-01-30 12:00:00 9.3 9 Noroeste 31 Norte 0 -- -- 78
2019-01-30 11:00:00 8.5 6 Oeste 40 Norte 0.4 -- -- 93
2019-01-30 10:00:00 8.5 11 Norte 33 Noroeste 0.4 -- -- 95
2019-01-30 09:00:00 8.6 9 Norte 28 Norte 0.4 -- -- 96
2019-01-30 08:00:00 8.7 7 Noroeste 30 Norte 0.8 -- -- 96
2019-01-30 07:00:00 8.6 6 Oeste 26 Oeste 0.8 -- -- 96
2019-01-30 06:00:00 8.4 9 Oeste 26 Norte 0.4 -- -- 95
2019-01-30 05:00:00 8.2 6 Oeste 27 Norte 0.2 -- -- 95
2019-01-30 04:00:00 7.9 5 Oeste 23 Noroeste 0.6 -- -- 95
2019-01-30 03:00:00 7.6 6 Noroeste 23 Noroeste 0.4 -- -- 93
2019-01-30 02:00:00 8 9 Norte 28 Noroeste 0 -- -- 90
2019-01-30 01:00:00 8.7 8 Oeste 28 Noroeste 0 -- -- 84
2019-01-30 00:00:00 9 11 Oeste 26 Nordeste 0 -- -- 83
2019-01-29 23:00:00 9.6 10 Noroeste 34 Norte 0 -- -- 81
2019-01-29 22:00:00 9.8 12 Oeste 31 Oeste 0 -- -- 83
2019-01-29 21:00:00 10 8 Oeste 28 Norte 0 -- -- 81
2019-01-29 20:00:00 9.8 11 Oeste 33 Norte 0 -- -- 82
2019-01-29 19:00:00 9.5 8 Oeste 27 Noroeste 0 -- -- 85
2019-01-29 18:00:00 9.2 9 Oeste 28 Noroeste 0 -- -- 87
2019-01-29 17:00:00 8.9 7 Noroeste 28 Nordeste 0 -- -- 87
2019-01-29 16:00:00 8.2 6 Oeste 30 Noroeste 0 -- -- 92
2019-01-29 15:00:00 8.2 11 Noroeste 38 Norte 0 -- -- 88
2019-01-29 14:00:00 9.5 16 Noroeste 42 Norte 0 -- -- 81
2019-01-29 13:00:00 9.4 18 Norte 46 Norte 0 -- -- 77
2019-01-29 12:00:00 8.6 19 Norte 45 Norte 0 -- -- 79
2019-01-29 11:00:00 8.2 18 Norte 43 Noroeste 0 -- -- 84
2019-01-29 10:00:00 7.3 16 Norte 43 Norte 0 -- -- 89
2019-01-29 09:00:00 7.4 12 Norte 44 Noroeste 0 -- -- 89
2019-01-29 08:00:00 7.1 15 Norte 37 Noroeste 0 -- -- 94
2019-01-29 07:00:00 7.1 14 Norte 39 Norte 0 -- -- 93
2019-01-29 06:00:00 7.4 8 Oeste 32 Norte 0 -- -- 92
2019-01-29 05:00:00 7.4 12 Norte 35 Norte 0 -- -- 93
2019-01-29 04:00:00 7.5 8 Norte 35 Nordeste 0 -- -- 93
2019-01-29 03:00:00 7.7 14 Norte 29 Noroeste 0 -- -- 92
2019-01-29 02:00:00 8 6 Oeste 25 Noroeste 0 -- -- 91
2019-01-29 01:00:00 8 8 Noroeste 28 Noroeste 0 -- -- 90
2019-01-29 00:00:00 8.1 9 Norte 35 Norte 0 -- -- 88
2019-01-28 23:00:00 8.2 13 Norte 40 Nordeste 0 -- -- 86
2019-01-28 22:00:00 8.8 15 Norte 39 Norte 0 -- -- 80
2019-01-28 21:00:00 9.2 12 Norte 40 Norte 0 -- -- 78
2019-01-28 20:00:00 9.4 12 Norte 39 Norte 0 -- -- 79
2019-01-28 19:00:00 9.3 9 Noroeste 33 Norte 0 -- -- 80
2019-01-28 18:00:00 9.6 14 Oeste 33 Norte 0 -- -- 71
2019-01-28 17:00:00 10.2 11 Norte 49 Norte 0 -- -- 67
2019-01-28 16:00:00 10 18 Norte 49 Norte 0 -- -- 64
2019-01-28 15:00:00 11.2 23 Norte 45 Noroeste 0 -- -- 58
2019-01-28 14:00:00 11.7 22 Norte 39 Norte 0 -- -- 58
2019-01-28 13:00:00 10.9 17 Norte 40 Norte 0 -- -- 59
2019-01-28 12:00:00 10.5 9 Nordeste 25 Nordeste 0 -- -- 56
2019-01-28 11:00:00 8.6 8 Nordeste 20 Norte 0 -- -- 63
2019-01-28 10:00:00 6.1 8 Este 12 Nordeste 0 -- -- 67
2019-01-28 09:00:00 5.8 5 Nordeste 16 Noroeste 0 -- -- 65
2019-01-28 08:00:00 5.5 5 Noroeste 14 Nordeste 0 -- -- 65
2019-01-28 07:00:00 5.4 5 Nordeste 22 Noroeste 0 -- -- 73
2019-01-28 06:00:00 6.8 9 Nordeste 34 Nordeste 0 -- -- 66
2019-01-28 05:00:00 6.9 9 Nordeste 27 Nordeste 0 -- -- 68
2019-01-28 04:00:00 6.8 8 Nordeste 23 Norte 0 -- -- 70
2019-01-28 03:00:00 6.7 5 Nordeste 18 Nordeste 0 -- -- 71
2019-01-28 02:00:00 7 8 Noroeste 22 Norte 0 -- -- 71
2019-01-28 01:00:00 7.1 12 Norte 30 Nordeste 0 -- -- 74
2019-01-28 00:00:00 7.4 8 Norte 23 Norte 0 -- -- 71
2019-01-27 23:00:00 7.5 7 Norte 23 Nordeste 0 -- -- 74
2019-01-27 22:00:00 7.6 4 Norte 23 Nordeste 0 -- -- 77
2019-01-27 21:00:00 8 6 Oeste 28 Nordeste 0 -- -- 77
2019-01-27 20:00:00 8.7 8 Norte 27 Noroeste 0 -- -- 75
2019-01-27 19:00:00 9.3 9 Noroeste 30 Norte 0 -- -- 73
2019-01-27 18:00:00 10.4 10 Noroeste 32 Noroeste 0 -- -- 73
2019-01-27 17:00:00 10.5 12 Oeste 40 Norte 0 -- -- 74
2019-01-27 16:00:00 10.6 14 Noroeste 34 Oeste 0 -- -- 66
2019-01-27 15:00:00 11.7 11 Noroeste 28 Noroeste 0 -- -- 60
2019-01-27 14:00:00 11.9 12 Noroeste 31 Noroeste 0 -- -- 58
2019-01-27 13:00:00 11.9 10 Noroeste 36 Nordeste 0 -- -- 69
2019-01-27 12:00:00 11.8 11 Noroeste 31 Norte 0 -- -- 71
2019-01-27 11:00:00 10.9 8 Oeste 28 Norte 0 -- -- 78
2019-01-27 10:00:00 9.3 7 Sur 21 Nordeste 0 -- -- 86
2019-01-27 09:00:00 9 5 Nordeste 24 Nordeste 0 -- -- 91
2019-01-27 08:00:00 8.8 6 Sudoeste 25 Norte 0 -- -- 93
2019-01-27 07:00:00 8.3 8 Norte 26 Norte 0 -- -- 93
2019-01-27 06:00:00 7.7 4 Norte 39 Norte 0 -- -- 88
2019-01-27 05:00:00 7.3 17 Norte 32 Norte 0 -- -- 91
2019-01-27 04:00:00 6.6 8 Nordeste 20 Norte 0 -- -- 88
2019-01-27 03:00:00 6.1 13 Norte 24 Norte 0 -- -- 92
2019-01-27 02:00:00 7.6 9 Norte 20 Nordeste 0 -- -- 90
2019-01-27 01:00:00 7.7 7 Norte 22 Norte 0 -- -- 90
2019-01-27 00:00:00 8.2 12 Norte 22 Norte 0 -- -- 90
2019-01-26 23:00:00 8.8 10 Norte 19 Norte 0 -- -- 90
2019-01-26 22:00:00 10 9 Norte 18 Norte 0 -- -- 88
2019-01-26 21:00:00 10.8 10 Norte 21 Norte 0 -- -- 86
2019-01-26 20:00:00 12 8 Norte 24 Norte 0 -- -- 81
2019-01-26 19:00:00 12.6 5 Sudoeste 10 Sudoeste 0 -- -- 72
2019-01-26 18:00:00 15 7 Sudoeste 18 Sudoeste 0 -- -- 68
2019-01-26 17:00:00 16.5 9 Sudoeste 20 Sudoeste 0 -- -- 62
2019-01-26 16:00:00 16.9 13 Sudoeste 21 Sudoeste 0 -- -- 60
2019-01-26 15:00:00 17.3 11 Sudoeste 19 Sudoeste 0 -- -- 58
2019-01-26 14:00:00 17 9 Sudoeste 15 Sudoeste 0 -- -- 57
2019-01-26 13:00:00 16.2 6 Sudoeste 16 Sudoeste 0 -- -- 56
2019-01-26 12:00:00 16.2 3 Sur 10 Sur 0 -- -- 52
2019-01-26 11:00:00 13.9 4 Sudoeste 8 Sudoeste 0 -- -- 56
2019-01-26 10:00:00 9.4 5 Nordeste 9 Nordeste 0 -- -- 67
2019-01-26 09:00:00 10 5 Nordeste 11 Nordeste 0 -- -- 62
2019-01-26 08:00:00 9.3 8 Norte 13 Nordeste 0 -- -- 61
2019-01-26 07:00:00 9.2 12 Nordeste 13 Norte 0 -- -- 62
2019-01-26 06:00:00 9.5 9 Nordeste 13 Norte 0 -- -- 60
2019-01-26 05:00:00 11.1 9 Norte 13 Norte 0 -- -- 53
2019-01-26 04:00:00 11.4 8 Nordeste 14 Nordeste 0 -- -- 53
2019-01-26 03:00:00 10.2 5 Norte 16 Norte 0 -- -- 60
2019-01-26 02:00:00 10.9 12 Norte 24 Norte 0 -- -- 59
2019-01-26 01:00:00 11.1 15 Norte 23 Noroeste 0 -- -- 60
2019-01-26 00:00:00 11.4 9 Norte 22 Norte 0 -- -- 60
2019-01-25 23:00:00 13 6 Nordeste 23 Nordeste 0 -- -- 52
2019-01-25 22:00:00 13.4 7 Nordeste 31 Norte 0 -- -- 50
2019-01-25 21:00:00 12.9 13 Este 36 Noroeste 0 -- -- 52
2019-01-25 20:00:00 12.9 5 Noroeste 19 Noroeste 0 -- -- 58
2019-01-25 19:00:00 14.5 6 Norte 20 Norte 0 -- -- 53
2019-01-25 18:00:00 16.8 6 Nordeste 22 Norte 0 -- -- 48
2019-01-25 17:00:00 17.4 9 Norte 23 Norte 0 -- -- 49
2019-01-25 16:00:00 18.4 10 Nordeste 17 Nordeste 0 -- -- 47
2019-01-25 15:00:00 18.2 5 Nordeste 21 Noroeste 0 -- -- 52
2019-01-25 14:00:00 17.3 12 Norte 25 Norte 0 -- -- 51
2019-01-25 13:00:00 16.7 13 Norte 25 Norte 0 -- -- 48
2019-01-25 12:00:00 15.2 11 Norte 25 Norte 0 -- -- 57
2019-01-25 11:00:00 12 10 Norte 20 Noroeste 0 -- -- 73
2019-01-25 10:00:00 8.6 8 Norte 18 Norte 0 -- -- 88
2019-01-25 09:00:00 7.9 8 Nordeste 22 Norte 0 -- -- 90
2019-01-25 08:00:00 8.1 12 Norte 23 Norte 0 -- -- 90
2019-01-25 07:00:00 8.1 10 Norte 28 Norte 0 -- -- 88
2019-01-25 06:00:00 9.1 15 Norte 26 Norte 0 -- -- 87
2019-01-25 05:00:00 8.4 12 Norte 26 Norte 0 -- -- 89
2019-01-25 04:00:00 8.1 13 Norte 24 Norte 0 -- -- 91
2019-01-25 03:00:00 7.5 8 Nordeste 34 Norte 0 -- -- 91
2019-01-25 02:00:00 8 11 Norte 28 Norte 0 -- -- 91
2019-01-25 01:00:00 7.6 5 Norte 26 Noroeste 0 -- -- 91
2019-01-25 00:00:00 8.4 7 Norte 27 Norte 0 -- -- 89
2019-01-24 23:00:00 8.6 9 Norte 21 Norte 0 -- -- 87
2019-01-24 22:00:00 9.9 3 Nordeste 10 Oeste 0 -- -- 82
2019-01-24 21:00:00 10.3 5 Nordeste 16 Nordeste 0 -- -- 80
2019-01-24 20:00:00 9.6 6 Nordeste 25 Nordeste 0 -- -- 85
2019-01-24 19:00:00 11.1 14 Norte 26 Noroeste 0 -- -- 79
2019-01-24 18:00:00 12.8 16 Norte 32 Noroeste 0 -- -- 73
2019-01-24 17:00:00 13.9 11 Norte 31 Noroeste 0 -- -- 68
2019-01-24 16:00:00 14 17 Norte 33 Norte 0 -- -- 67
2019-01-24 15:00:00 14.4 11 Norte 26 Nordeste 0 -- -- 65
2019-01-24 14:00:00 13.7 11 Norte 27 Norte 0 -- -- 67
2019-01-24 13:00:00 12.9 9 Norte 29 Sudeste 0 -- -- 69
2019-01-24 12:00:00 12.5 7 Norte 23 Nordeste 0 -- -- 78
2019-01-24 11:00:00 11 5 Norte 26 Norte 0 -- -- 85
2019-01-24 10:00:00 8.8 11 Norte 32 Norte 0 -- -- 92
2019-01-24 09:00:00 8.4 13 Nordeste 37 Norte 0 -- -- 95
2019-01-24 08:00:00 8.3 13 Norte 33 Noroeste 0.2 -- -- 96
2019-01-24 07:00:00 8.3 14 Norte 41 Nordeste 0 -- -- 96
2019-01-24 06:00:00 8.4 4 Sudoeste 20 Norte 0 -- -- 95
2019-01-24 05:00:00 8.6 4 Sudoeste 19 Sudeste 0.2 -- -- 95
2019-01-24 04:00:00 8.7 7 Este 23 Noroeste 0.4 -- -- 95
2019-01-24 03:00:00 8.6 6 Oeste 19 Norte 0.2 -- -- 95
2019-01-24 02:00:00 8.7 6 Norte 22 Norte 0.2 -- -- 93
2019-01-24 01:00:00 8.9 5 Sudeste 32 Nordeste 0 -- -- 91
2019-01-24 00:00:00 9.1 7 Nordeste 23 Oeste 0 -- -- 89
2019-01-23 23:00:00 9.3 6 Este 22 Nordeste 0 -- -- 88
2019-01-23 22:00:00 9.5 9 Norte 34 Noroeste 0 -- -- 85
2019-01-23 21:00:00 9.1 5 Norte 26 Nordeste 0 -- -- 87
2019-01-23 20:00:00 9.1 6 Norte 33 Noroeste 0 -- -- 85
2019-01-23 19:00:00 9.1 14 Noroeste 39 Oeste 0 -- -- 85
2019-01-23 18:00:00 8.8 12 Oeste 38 Oeste 0 -- -- 88
2019-01-23 17:00:00 8.6 13 Oeste 38 Oeste 0 -- -- 88
2019-01-23 16:00:00 8.7 13 Noroeste 36 Sur 0 -- -- 86
2019-01-23 15:00:00 8.5 12 Noroeste 36 Noroeste 0 -- -- 83
2019-01-23 14:00:00 8.7 13 Oeste 33 Noroeste 0 -- -- 82
2019-01-23 13:00:00 7.9 12 Noroeste 36 Noroeste 0 -- -- 85
2019-01-23 12:00:00 7.2 13 Noroeste 35 Norte 0 -- -- 92
2019-01-23 11:00:00 6.3 10 Norte 35 Norte 0 -- -- 93
2019-01-23 10:00:00 6 9 Norte 33 Nordeste 0 -- -- 93
2019-01-23 09:00:00 5.9 9 Noroeste 31 Noroeste 0 -- -- 92
2019-01-23 08:00:00 5.9 10 Noroeste 31 Oeste 0 -- -- 91
2019-01-23 07:00:00 6 10 Noroeste 34 Norte 0 -- -- 90
2019-01-23 06:00:00 6.3 9 Noroeste 32 Noroeste 0 -- -- 89
2019-01-23 05:00:00 6.6 9 Noroeste 38 Noroeste 0 -- -- 88
2019-01-23 04:00:00 7.2 10 Noroeste 40 Noroeste 0 -- -- 85
2019-01-23 03:00:00 7.8 10 Noroeste 33 Norte 0.2 -- -- 87
2019-01-23 02:00:00 7.7 13 Noroeste 33 Norte 0.2 -- -- 92
2019-01-23 01:00:00 7.3 11 Oeste 39 Norte 0.6 -- -- 94
2019-01-23 00:00:00 6.7 7 Oeste 26 Norte 0.8 -- -- 93
2019-01-22 23:00:00 6.7 11 Oeste 37 Norte 0.2 -- -- 90
2019-01-22 22:00:00 7.2 14 Noroeste 42 Norte 0 -- -- 84
2019-01-22 21:00:00 7.4 9 Norte 28 Norte 0 -- -- 81
2019-01-22 20:00:00 7.3 10 Norte 31 Norte 0 -- -- 79
2019-01-22 19:00:00 7.3 6 Noroeste 37 Noroeste 0 -- -- 79
2019-01-22 18:00:00 7.5 7 Norte 37 Noroeste 0 -- -- 76
2019-01-22 17:00:00 8.2 12 Noroeste 39 Norte 0 -- -- 72
2019-01-22 16:00:00 7.8 8 Oeste 27 Noroeste 0 -- -- 74
2019-01-22 15:00:00 8.7 10 Noroeste 35 Norte 0 -- -- 67
2019-01-22 14:00:00 10.1 10 Noroeste 35 Sudoeste 0 -- -- 59
2019-01-22 13:00:00 9.9 9 Oeste 35 Norte 0 -- -- 62
2019-01-22 12:00:00 7.2 7 Oeste 26 Nordeste 0 -- -- 70
2019-01-22 11:00:00 6.5 8 Nordeste 28 Norte 0 -- -- 70
2019-01-22 10:00:00 5.1 5 Norte 18 Nordeste 0 -- -- 71
2019-01-22 09:00:00 2.3 10 Nordeste 18 Norte 0 -- -- 84
2019-01-22 08:00:00 4.1 6 Nordeste 13 Nordeste 0 -- -- 75
2019-01-22 07:00:00 3.6 7 Nordeste 13 Norte 0 -- -- 80
2019-01-22 06:00:00 3.3 6 Nordeste 10 Norte 0 -- -- 82
2019-01-22 05:00:00 3.3 6 Norte 10 Norte 0 -- -- 82
2019-01-22 04:00:00 3.9 5 Norte 12 Norte 0 -- -- 80
2019-01-22 03:00:00 4.6 6 Nordeste 10 Norte 0 -- -- 76
2019-01-22 02:00:00 4.8 3 Sudoeste 14 Norte 0 -- -- 75
2019-01-22 01:00:00 4.4 6 Nordeste 14 Norte 0 -- -- 78
2019-01-22 00:00:00 4.2 7 Nordeste 12 Norte 0 -- -- 78
2019-01-21 23:00:00 5 6 Nordeste 14 Norte 0 -- -- 74
2019-01-21 22:00:00 4.6 7 Nordeste 19 Norte 0 -- -- 77
2019-01-21 21:00:00 5.8 7 Nordeste 17 Noroeste 0 -- -- 71
2019-01-21 20:00:00 6.6 4 Sudoeste 14 Noroeste 0 -- -- 67
2019-01-21 19:00:00 7.9 4 Oeste 12 Norte 0 -- -- 60
2019-01-21 18:00:00 10.7 5 Sudoeste 19 Norte 0 -- -- 52
2019-01-21 17:00:00 11.3 9 Norte 26 Noroeste 0 -- -- 61
2019-01-21 16:00:00 12.6 7 Noroeste 21 Norte 0 -- -- 62
2019-01-21 15:00:00 13.1 4 Norte 18 Norte 0 -- -- 43
2019-01-21 14:00:00 12.8 6 Norte 21 Norte 0 -- -- 46
2019-01-21 13:00:00 11.9 6 Nordeste 23 Norte 0 -- -- 47
2019-01-21 12:00:00 10 7 Nordeste 21 Nordeste 0 -- -- 60
2019-01-21 11:00:00 7.5 4 Este 13 Norte 0 -- -- 71
2019-01-21 10:00:00 3.8 4 Noroeste 15 Norte 0 -- -- 92
2019-01-21 09:00:00 2.1 6 Norte 22 Norte 0 -- -- 95
2019-01-21 08:00:00 2.3 9 Nordeste 20 Norte 0 -- -- 95
2019-01-21 07:00:00 2.9 9 Nordeste 19 Norte 0 -- -- 94
2019-01-21 06:00:00 3.3 11 Norte 17 Norte 0 -- -- 92
2019-01-21 05:00:00 4 9 Nordeste 14 Norte 0 -- -- 89
2019-01-21 04:00:00 4.5 4 Nordeste 13 Norte 0 -- -- 88
2019-01-21 03:00:00 4.5 6 Nordeste 13 Nordeste 0 -- -- 88
2019-01-21 02:00:00 5.5 7 Norte 13 Norte 0 -- -- 84
2019-01-21 01:00:00 6.4 4 Nordeste 14 Nordeste 0 -- -- 80
2019-01-21 00:00:00 6.5 2 Norte 9 Norte 0 -- -- 81
2019-01-20 23:00:00 6.9 5 Norte 14 Norte 0 -- -- 81
2019-01-20 22:00:00 7.5 4 Nordeste 22 Norte 0 -- -- 84
2019-01-20 21:00:00 8.3 9 Norte 21 Norte 0 -- -- 81
2019-01-20 20:00:00 8.4 4 Nordeste 22 Noroeste 0 -- -- 81
2019-01-20 19:00:00 8.5 5 Noroeste 28 Norte 0 -- -- 82
2019-01-20 18:00:00 8.9 9 Nordeste 28 Noroeste 0 -- -- 82
2019-01-20 17:00:00 8.6 10 Norte 31 Norte 0 -- -- 84
2019-01-20 16:00:00 7.8 7 Norte 32 Noroeste 0 -- -- 92
2019-01-20 15:00:00 8 6 Sudeste 35 Norte 0 -- -- 90
2019-01-20 14:00:00 8 7 Noroeste 28 Norte 0 -- -- 91
2019-01-20 13:00:00 7.8 9 Norte 33 Norte 0 -- -- 93
2019-01-20 12:00:00 7.4 9 Oeste 32 Nordeste 0.2 -- -- 95
2019-01-20 11:00:00 7.6 6 Sudoeste 25 Norte 0.2 -- -- 93
2019-01-20 10:00:00 7.9 7 Noroeste 29 Noroeste 0 -- -- 91
2019-01-20 09:00:00 8.6 9 Norte 30 Noroeste 0 -- -- 90
2019-01-20 08:00:00 9.2 12 Noroeste 33 Noroeste 1.6 -- -- 92
2019-01-20 07:00:00 9.4 6 Sudoeste 21 Norte 0 -- -- 92
2019-01-20 06:00:00 9.4 7 Norte 22 Noroeste 0 -- -- 90
2019-01-20 05:00:00 9.4 5 Noroeste 29 Nordeste 0 -- -- 90
2019-01-20 04:00:00 9.1 11 Norte 39 Nordeste 0 -- -- 91
2019-01-20 03:00:00 9.5 8 Norte 27 Norte 0.2 -- -- 92
2019-01-20 02:00:00 10.1 4 Oeste 16 Sudoeste 1.2 -- -- 95
2019-01-20 01:00:00 9.8 4 Sudoeste 34 Sudoeste 3 -- -- 96
2019-01-20 00:00:00 9.5 17 Sudoeste 51 Sur 5.4 -- -- 95
2019-01-19 23:00:00 9.7 14 Sudoeste 40 Sudoeste 1.2 -- -- 93
2019-01-19 22:00:00 10.1 10 Oeste 26 Sudoeste 1.2 -- -- 92
2019-01-19 21:00:00 10.1 10 Oeste 23 Norte 0 -- -- 89
2019-01-19 20:00:00 9.2 10 Sudoeste 27 Sur 0 -- -- 95
2019-01-19 19:00:00 7.8 2 Nordeste 17 Noroeste 0 -- -- 94
2019-01-19 18:00:00 8 6 Norte 25 Oeste 0 -- -- 91
2019-01-19 17:00:00 8.2 9 Norte 28 Noroeste 0.2 -- -- 92
2019-01-19 16:00:00 8 8 Norte 32 Nordeste 0 -- -- 93
2019-01-19 15:00:00 8.2 9 Noroeste 30 Norte 0 -- -- 91
2019-01-19 14:00:00 8.3 7 Noroeste 26 Noroeste 0 -- -- 90
2019-01-19 13:00:00 8.3 10 Noroeste 27 Noroeste 0 -- -- 93
2019-01-19 12:00:00 8.2 8 Noroeste 23 Noroeste 0 -- -- 95
2019-01-19 11:00:00 8.2 7 Norte 26 Norte 0.2 -- -- 96
2019-01-19 10:00:00 7 3 Norte 14 Norte 0.2 -- -- 96
2019-01-19 09:00:00 7.7 2 Sudoeste 5 Sudoeste 0.6 -- -- 96
2019-01-19 08:00:00 7.4 2 Oeste 8 Nordeste 2.2 -- -- 95
2019-01-19 07:00:00 6.8 6 Nordeste 17 Oeste 1.8 -- -- 94
2019-01-19 06:00:00 6.5 6 Norte 16 Noroeste 1.2 -- -- 93
2019-01-19 05:00:00 6.8 9 Noroeste 24 Noroeste 0.4 -- -- 93
2019-01-19 04:00:00 6.2 6 Norte 16 Norte 0.4 -- -- 91
2019-01-19 03:00:00 6.2 8 Norte 14 Norte 0.2 -- -- 87
2019-01-19 02:00:00 6.9 4 Noroeste 15 Noroeste 0 -- -- 79
2019-01-19 01:00:00 6.9 4 Noroeste 14 Norte 0 -- -- 77
2019-01-19 00:00:00 6.9 6 Norte 19 Norte 0 -- -- 78